createdAt,value
2022-10-01T00:02:07.298Z,20.20
2022-10-01T00:04:37.695Z,20.15
2022-10-01T00:07:09.702Z,20.06
2022-10-01T00:09:37.233Z,20.04
2022-10-01T00:12:04.676Z,19.94
2022-10-01T00:14:31.868Z,19.90
2022-10-01T00:16:59.383Z,19.90
2022-10-01T00:19:27.512Z,19.86
2022-10-01T00:21:54.738Z,19.90
2022-10-01T00:24:21.900Z,19.99
2022-10-01T00:26:49.120Z,20.12
2022-10-01T00:29:16.689Z,20.04
2022-10-01T00:31:44.051Z,20.13
2022-10-01T00:34:13.907Z,20.14
2022-10-01T00:36:42.074Z,20.30
2022-10-01T00:39:11.924Z,20.37
2022-10-01T00:41:39.910Z,20.29
2022-10-01T00:44:38.149Z,20.38
2022-10-01T00:47:20.321Z,20.25
2022-10-01T00:49:50.083Z,20.28
2022-10-01T00:52:22.013Z,20.20
2022-10-01T00:54:57.309Z,20.24
2022-10-01T00:57:27.003Z,20.23
2022-10-01T00:59:58.254Z,20.24
2022-10-01T01:02:25.695Z,20.13
2022-10-01T01:04:53.025Z,20.13
2022-10-01T01:07:21.363Z,20.01
2022-10-01T01:09:51.684Z,20.02
2022-10-01T01:12:57.072Z,20.18
2022-10-01T01:15:30.508Z,20.22
2022-10-01T01:18:20.310Z,20.24
2022-10-01T01:21:00.398Z,20.16
2022-10-01T01:23:47.747Z,20.24
2022-10-01T01:26:32.409Z,20.28
2022-10-01T01:29:09.675Z,20.22
2022-10-01T01:31:46.618Z,20.09
2022-10-01T01:34:20.390Z,20.27
2022-10-01T01:36:58.769Z,20.35
2022-10-01T01:39:30.041Z,20.43
2022-10-01T01:42:01.452Z,20.50
2022-10-01T01:44:36.538Z,20.47
2022-10-01T01:47:07.512Z,20.45
2022-10-01T01:49:34.818Z,20.58
2022-10-01T01:52:09.272Z,20.62
2022-10-01T01:54:37.479Z,20.56
2022-10-01T01:57:07.007Z,20.68
2022-10-01T01:59:36.757Z,20.62
2022-10-01T02:02:07.046Z,20.60
2022-10-01T02:04:54.886Z,20.62
2022-10-01T02:07:29.094Z,20.61
2022-10-01T02:10:14.672Z,20.63
2022-10-01T02:12:41.878Z,20.55
2022-10-01T02:15:52.492Z,20.52
2022-10-01T02:18:41.056Z,20.51
2022-10-01T02:21:18.065Z,20.52
2022-10-01T02:24:03.632Z,20.58
2022-10-01T02:26:32.843Z,20.43
2022-10-01T02:29:05.498Z,20.52
2022-10-01T02:31:33.922Z,20.46
2022-10-01T02:34:04.667Z,20.42
2022-10-01T02:36:33.886Z,20.38
2022-10-01T02:39:03.049Z,20.37
2022-10-01T02:41:35.952Z,20.30
2022-10-01T02:44:15.188Z,20.39
2022-10-01T02:46:50.575Z,20.50
2022-10-01T02:49:18.226Z,20.49
2022-10-01T02:51:58.083Z,20.57
2022-10-01T02:54:54.769Z,20.71
2022-10-01T02:57:25.129Z,20.66
2022-10-01T02:59:53.039Z,20.71
2022-10-01T03:02:21.126Z,20.75
2022-10-01T03:04:48.768Z,20.76
2022-10-01T03:07:17.159Z,20.79
2022-10-01T03:09:44.471Z,20.77
2022-10-01T03:12:13.064Z,20.73
2022-10-01T03:14:40.206Z,20.76
2022-10-01T03:17:08.415Z,20.75
2022-10-01T03:19:35.879Z,20.69
2022-10-01T03:22:03.229Z,20.68
2022-10-01T03:24:30.892Z,20.67
2022-10-01T03:26:58.579Z,20.58
2022-10-01T03:29:26.705Z,20.56
2022-10-01T03:31:54.443Z,20.66
2022-10-01T03:34:22.092Z,20.69
2022-10-01T03:36:50.528Z,20.70
2022-10-01T03:39:18.497Z,20.59
2022-10-01T03:41:46.001Z,20.73
2022-10-01T03:44:13.253Z,20.63
2022-10-01T03:46:40.429Z,20.70
2022-10-01T03:49:07.753Z,20.71
2022-10-01T03:51:37.634Z,20.72
2022-10-01T03:54:08.080Z,20.71
2022-10-01T03:56:36.097Z,20.70
2022-10-01T03:59:03.997Z,20.71
2022-10-01T04:01:31.533Z,20.70
2022-10-01T04:03:59.645Z,20.73
2022-10-01T04:06:26.914Z,20.71
2022-10-01T04:08:54.629Z,20.75
2022-10-01T04:11:21.988Z,20.76
2022-10-01T04:13:49.352Z,20.78
2022-10-01T04:16:17.250Z,20.72
2022-10-01T04:18:44.688Z,20.75
2022-10-01T04:21:13.018Z,20.69
2022-10-01T04:23:41.246Z,20.54
2022-10-01T04:26:08.646Z,20.68
2022-10-01T04:28:36.741Z,20.59
2022-10-01T04:31:22.974Z,20.53
2022-10-01T04:33:50.741Z,20.64
2022-10-01T04:36:18.097Z,20.66
2022-10-01T04:38:45.272Z,20.69
2022-10-01T04:41:15.290Z,20.70
2022-10-01T04:43:42.488Z,20.74
2022-10-01T04:46:09.850Z,20.75
2022-10-01T04:48:37.056Z,20.73
2022-10-01T04:51:04.505Z,20.76
2022-10-01T04:53:31.833Z,20.74
2022-10-01T04:56:02.731Z,20.79
2022-10-01T04:58:31.531Z,20.74
2022-10-01T05:01:01.944Z,20.79
2022-10-01T05:03:30.332Z,20.82
2022-10-01T05:05:59.021Z,20.81
2022-10-01T05:08:26.217Z,20.85
2022-10-01T05:10:53.680Z,20.86
2022-10-01T05:13:21.043Z,20.81
2022-10-01T05:15:52.549Z,20.90
2022-10-01T05:18:20.633Z,20.88
2022-10-01T05:20:47.878Z,20.90
2022-10-01T05:23:15.118Z,20.93
2022-10-01T05:25:42.942Z,20.92
2022-10-01T05:28:11.808Z,20.88
2022-10-01T05:30:38.937Z,20.85
2022-10-01T05:33:06.553Z,20.88
2022-10-01T05:35:33.693Z,20.93
2022-10-01T05:38:03.010Z,21.02
2022-10-01T05:40:30.769Z,21.06
2022-10-01T05:43:00.248Z,21.12
2022-10-01T05:45:28.857Z,21.05
2022-10-01T05:47:58.751Z,21.11
2022-10-01T05:50:26.863Z,21.11
2022-10-01T05:52:54.989Z,21.08
2022-10-01T05:55:23.387Z,20.92
2022-10-01T05:58:13.423Z,21.10
2022-10-01T06:00:43.152Z,21.09
2022-10-01T06:03:15.682Z,21.02
2022-10-01T06:05:45.137Z,21.03
2022-10-01T06:08:12.905Z,21.07
2022-10-01T06:10:40.826Z,21.17
2022-10-01T06:13:08.209Z,21.21
2022-10-01T06:15:38.669Z,21.25
2022-10-01T06:18:08.540Z,21.35
2022-10-01T06:20:36.491Z,21.38
2022-10-01T06:23:06.038Z,21.41
2022-10-01T06:25:35.154Z,21.38
2022-10-01T06:28:02.654Z,21.52
2022-10-01T06:30:34.056Z,21.57
2022-10-01T06:33:02.976Z,21.60
2022-10-01T06:35:31.261Z,21.66
2022-10-01T06:38:01.727Z,21.72
2022-10-01T06:40:30.242Z,21.76
2022-10-01T06:42:59.350Z,21.83
2022-10-01T06:45:28.103Z,21.84
2022-10-01T06:47:57.332Z,21.83
2022-10-01T06:50:25.245Z,21.85
2022-10-01T06:52:53.465Z,21.83
2022-10-01T06:55:29.756Z,21.96
2022-10-01T06:58:10.665Z,22.03
2022-10-01T07:00:39.289Z,22.01
2022-10-01T07:03:11.406Z,22.05
2022-10-01T07:05:39.788Z,22.10
2022-10-01T07:08:08.215Z,22.07
2022-10-01T07:10:36.677Z,21.96
2022-10-01T07:13:12.475Z,21.97
2022-10-01T07:15:40.909Z,22.00
2022-10-01T07:18:09.755Z,22.08
2022-10-01T07:20:39.976Z,22.20
2022-10-01T07:23:16.697Z,22.29
2022-10-01T07:25:45.106Z,22.38
2022-10-01T07:28:18.842Z,22.43
2022-10-01T07:31:03.315Z,22.47
2022-10-01T07:33:30.666Z,22.55
2022-10-01T07:36:01.592Z,22.56
2022-10-01T07:38:28.913Z,22.65
2022-10-01T07:40:56.189Z,22.68
2022-10-01T07:43:23.430Z,22.77
2022-10-01T07:45:52.626Z,22.76
2022-10-01T07:48:20.003Z,22.90
2022-10-01T07:50:47.411Z,22.86
2022-10-01T07:53:14.769Z,23.04
2022-10-01T07:55:42.639Z,23.04
2022-10-01T07:58:10.140Z,23.13
2022-10-01T08:00:38.169Z,23.16
2022-10-01T08:03:06.379Z,23.25
2022-10-01T08:05:36.297Z,23.25
2022-10-01T08:08:08.351Z,23.40
2022-10-01T08:10:37.615Z,23.40
2022-10-01T08:13:17.701Z,23.46
2022-10-01T08:15:48.334Z,23.53
2022-10-01T08:18:16.085Z,23.46
2022-10-01T08:20:43.622Z,23.51
2022-10-01T08:23:15.046Z,23.60
2022-10-01T08:25:43.292Z,23.63
2022-10-01T08:28:12.825Z,23.66
2022-10-01T08:30:42.595Z,23.73
2022-10-01T08:33:14.384Z,23.74
2022-10-01T08:35:43.886Z,23.86
2022-10-01T08:38:12.434Z,23.93
2022-10-01T08:40:47.730Z,24.08
2022-10-01T08:43:31.764Z,24.19
2022-10-01T08:46:06.930Z,24.30
2022-10-01T08:48:45.453Z,24.40
2022-10-01T08:51:42.813Z,24.45
2022-10-01T08:54:40.260Z,24.46
2022-10-01T08:57:15.032Z,24.48
2022-10-01T08:59:42.138Z,24.60
2022-10-01T09:02:30.041Z,24.77
2022-10-01T09:05:01.848Z,24.85
2022-10-01T09:08:00.415Z,25.02
2022-10-01T09:10:43.115Z,25.04
2022-10-01T09:13:39.853Z,25.11
2022-10-01T09:16:25.717Z,25.20
2022-10-01T09:19:14.807Z,25.31
2022-10-01T09:21:59.144Z,25.39
2022-10-01T09:24:41.245Z,25.40
2022-10-01T09:27:26.851Z,25.44
2022-10-01T09:29:57.299Z,25.56
2022-10-01T09:32:31.233Z,25.61
2022-10-01T09:35:06.000Z,25.78
2022-10-01T09:37:49.867Z,25.86
2022-10-01T09:40:47.884Z,25.88
2022-10-01T09:43:22.191Z,25.98
2022-10-01T09:45:52.599Z,26.13
2022-10-01T09:48:29.609Z,26.02
2022-10-01T09:51:04.638Z,25.91
2022-10-01T09:53:41.611Z,25.99
2022-10-01T09:56:15.880Z,25.99
2022-10-01T09:58:48.023Z,25.95
2022-10-01T10:01:29.472Z,25.91
2022-10-01T10:03:58.396Z,25.76
2022-10-01T10:06:29.612Z,25.88
2022-10-01T10:09:00.222Z,25.97
2022-10-01T10:11:30.523Z,26.00
2022-10-01T10:14:01.010Z,26.04
2022-10-01T10:16:48.298Z,26.00
2022-10-01T10:19:26.140Z,25.95
2022-10-01T10:22:10.700Z,26.02
2022-10-01T10:24:38.632Z,26.17
2022-10-01T10:27:27.345Z,26.22
2022-10-01T10:30:27.118Z,26.25
2022-10-01T10:33:03.793Z,26.15
2022-10-01T10:35:32.005Z,26.27
2022-10-01T10:37:59.660Z,26.38
2022-10-01T10:40:31.166Z,26.47
2022-10-01T10:42:59.583Z,26.49
2022-10-01T10:45:38.291Z,26.57
2022-10-01T10:48:12.959Z,26.58
2022-10-01T10:50:43.769Z,26.60
2022-10-01T10:53:22.886Z,26.72
2022-10-01T10:56:02.978Z,26.74
2022-10-01T10:58:42.589Z,26.67
2022-10-01T11:01:17.516Z,26.58
2022-10-01T11:03:53.567Z,26.64
2022-10-01T11:06:22.154Z,26.62
2022-10-01T11:08:59.742Z,26.62
2022-10-01T11:11:46.300Z,26.65
2022-10-01T11:14:48.735Z,26.60
2022-10-01T11:17:25.193Z,26.62
2022-10-01T11:20:21.164Z,26.66
2022-10-01T11:23:35.057Z,26.75
2022-10-01T11:26:24.293Z,26.73
2022-10-01T11:29:32.159Z,26.70
2022-10-01T11:32:16.944Z,26.70
2022-10-01T11:35:03.879Z,26.79
2022-10-01T11:37:41.888Z,26.77
2022-10-01T11:40:21.283Z,26.76
2022-10-01T11:42:49.902Z,26.68
2022-10-01T11:45:22.829Z,26.62
2022-10-01T11:48:02.796Z,26.69
2022-10-01T11:50:43.153Z,26.61
2022-10-01T11:53:33.494Z,26.72
2022-10-01T11:56:38.272Z,26.74
2022-10-01T11:59:33.893Z,26.74
2022-10-01T12:02:20.534Z,26.72
2022-10-01T12:05:17.280Z,26.78
2022-10-01T12:07:57.459Z,26.79
2022-10-01T12:10:40.925Z,26.84
2022-10-01T12:13:16.039Z,26.71
2022-10-01T12:16:07.257Z,26.85
2022-10-01T12:18:53.124Z,26.83
2022-10-01T12:21:44.585Z,26.78
2022-10-01T12:24:36.058Z,26.79
2022-10-01T12:27:21.865Z,26.67
2022-10-01T12:30:10.567Z,26.71
2022-10-01T12:33:05.044Z,26.73
2022-10-01T12:35:47.634Z,26.78
2022-10-01T12:38:33.113Z,26.81
2022-10-01T12:41:00.302Z,26.76
2022-10-01T12:44:15.339Z,26.75
2022-10-01T12:47:00.721Z,26.72
2022-10-01T12:49:41.354Z,26.69
2022-10-01T12:52:41.878Z,26.72
2022-10-01T12:55:48.236Z,26.69
2022-10-01T12:58:51.778Z,26.62
2022-10-01T13:01:43.485Z,26.60
2022-10-01T13:04:10.978Z,26.47
2022-10-01T13:06:48.681Z,26.41
2022-10-01T13:09:48.643Z,26.39
2022-10-01T13:12:29.099Z,26.37
2022-10-01T13:14:58.446Z,26.29
2022-10-01T13:17:46.828Z,26.18
2022-10-01T13:20:34.638Z,26.06
2022-10-01T13:23:09.585Z,26.05
2022-10-01T13:25:58.017Z,26.06
2022-10-01T13:29:17.951Z,26.07
2022-10-01T13:32:44.501Z,26.11
2022-10-01T13:35:34.369Z,26.13
2022-10-01T13:38:14.882Z,26.10
2022-10-01T13:40:42.264Z,26.01
2022-10-01T13:43:21.063Z,26.00
2022-10-01T13:45:52.305Z,25.99
2022-10-01T13:48:24.658Z,25.97
2022-10-01T13:51:06.003Z,25.94
2022-10-01T13:53:38.283Z,25.77
2022-10-01T13:56:05.926Z,25.72
2022-10-01T13:58:44.893Z,25.64
2022-10-01T14:01:24.017Z,25.55
2022-10-01T14:04:05.384Z,25.47
2022-10-01T14:06:36.151Z,25.41
2022-10-01T14:09:05.983Z,25.33
2022-10-01T14:11:54.683Z,25.17
2022-10-01T14:14:59.103Z,25.22
2022-10-01T14:17:30.260Z,25.10
2022-10-01T14:20:00.943Z,25.01
2022-10-01T14:22:50.937Z,25.03
2022-10-01T14:25:38.048Z,24.95
2022-10-01T14:28:12.152Z,24.88
2022-10-01T14:30:49.023Z,24.98
2022-10-01T14:33:46.461Z,24.77
2022-10-01T14:36:18.655Z,24.62
2022-10-01T14:38:46.669Z,24.56
2022-10-01T14:41:25.861Z,24.50
2022-10-01T14:43:53.352Z,24.39
2022-10-01T14:46:20.680Z,24.29
2022-10-01T14:48:59.217Z,24.20
2022-10-01T14:51:35.545Z,24.16
2022-10-01T14:54:03.921Z,24.13
2022-10-01T14:56:33.074Z,24.04
2022-10-01T14:59:05.597Z,23.99
2022-10-01T15:01:33.151Z,23.81
2022-10-01T15:04:00.656Z,23.80
2022-10-01T15:06:31.612Z,23.82
2022-10-01T15:09:17.364Z,23.83
2022-10-01T15:11:47.540Z,23.77
2022-10-01T15:14:20.701Z,23.75
2022-10-01T15:16:48.889Z,23.70
2022-10-01T15:19:19.708Z,23.64
2022-10-01T15:21:53.358Z,23.60
2022-10-01T15:24:42.885Z,23.59
2022-10-01T15:27:14.004Z,23.55
2022-10-01T15:29:43.593Z,23.49
2022-10-01T15:32:16.866Z,23.45
2022-10-01T15:34:48.556Z,23.29
2022-10-01T15:37:36.734Z,23.34
2022-10-01T15:40:25.707Z,23.29
2022-10-01T15:43:23.056Z,23.29
2022-10-01T15:46:05.758Z,23.25
2022-10-01T15:48:33.448Z,23.16
2022-10-01T15:51:03.978Z,23.15
2022-10-01T15:53:33.099Z,23.12
2022-10-01T15:56:13.217Z,23.07
2022-10-01T15:58:50.194Z,23.05
2022-10-01T16:01:22.923Z,22.97
2022-10-01T16:04:08.110Z,22.99
2022-10-01T16:06:38.135Z,22.89
2022-10-01T16:09:13.087Z,22.84
2022-10-01T16:12:11.160Z,22.98
2022-10-01T16:14:44.270Z,22.92
2022-10-01T16:17:19.302Z,22.88
2022-10-01T16:19:52.341Z,22.88
2022-10-01T16:22:19.655Z,22.84
2022-10-01T16:24:49.235Z,22.71
2022-10-01T16:27:46.017Z,22.83
2022-10-01T16:30:19.408Z,22.83
2022-10-01T16:32:47.474Z,22.66
2022-10-01T16:35:28.349Z,22.74
2022-10-01T16:37:58.218Z,22.67
2022-10-01T16:40:31.438Z,22.52
2022-10-01T16:43:00.554Z,22.42
2022-10-01T16:45:35.072Z,22.38
2022-10-01T16:48:03.095Z,22.40
2022-10-01T16:50:30.420Z,22.30
2022-10-01T16:53:01.579Z,22.21
2022-10-01T16:55:36.063Z,22.18
2022-10-01T16:58:04.768Z,22.22
2022-10-01T17:00:33.160Z,22.26
2022-10-01T17:03:00.718Z,22.15
2022-10-01T17:05:34.364Z,22.16
2022-10-01T17:08:03.721Z,22.13
2022-10-01T17:10:36.106Z,21.99
2022-10-01T17:13:03.927Z,21.95
2022-10-01T17:15:32.529Z,22.00
2022-10-01T17:18:00.184Z,21.95
2022-10-01T17:20:29.985Z,21.97
2022-10-01T17:22:58.535Z,21.91
2022-10-01T17:25:32.422Z,21.89
2022-10-01T17:28:02.706Z,21.99
2022-10-01T17:30:30.736Z,21.96
2022-10-01T17:33:00.269Z,21.99
2022-10-01T17:35:29.401Z,21.85
2022-10-01T17:37:57.012Z,21.81
2022-10-01T17:40:24.523Z,21.88
2022-10-01T17:42:51.726Z,21.90
2022-10-01T17:45:19.102Z,22.00
2022-10-01T17:47:49.081Z,21.99
2022-10-01T17:50:17.108Z,22.09
2022-10-01T17:52:47.770Z,22.10
2022-10-01T17:55:15.362Z,22.06
2022-10-01T17:57:42.606Z,21.95
2022-10-01T18:00:10.452Z,21.92
2022-10-01T18:02:42.841Z,21.80
2022-10-01T18:05:14.605Z,21.70
2022-10-01T18:07:42.797Z,21.62
2022-10-01T18:10:12.752Z,21.57
2022-10-01T18:12:41.036Z,21.48
2022-10-01T18:15:08.741Z,21.50
2022-10-01T18:17:43.401Z,21.40
2022-10-01T18:20:13.744Z,21.25
2022-10-01T18:22:41.036Z,21.27
2022-10-01T18:25:08.954Z,21.34
2022-10-01T18:27:38.285Z,21.28
2022-10-01T18:30:05.921Z,21.25
2022-10-01T18:32:39.943Z,21.13
2022-10-01T18:35:21.582Z,21.13
2022-10-01T18:37:56.312Z,21.01
2022-10-01T18:40:39.789Z,20.90
2022-10-01T18:43:17.941Z,20.99
2022-10-01T18:46:00.450Z,21.06
2022-10-01T18:48:40.240Z,21.06
2022-10-01T18:51:08.604Z,20.95
2022-10-01T18:54:13.918Z,20.98
2022-10-01T18:56:55.260Z,20.86
2022-10-01T18:59:36.850Z,20.87
2022-10-01T19:02:31.864Z,20.92
2022-10-01T19:05:17.822Z,20.88
2022-10-01T19:08:01.389Z,20.80
2022-10-01T19:10:40.534Z,20.86
2022-10-01T19:13:33.616Z,20.94
2022-10-01T19:16:24.313Z,20.99
2022-10-01T19:19:06.724Z,21.08
2022-10-01T19:21:46.181Z,21.10
2022-10-01T19:24:31.522Z,21.15
2022-10-01T19:27:21.821Z,21.28
2022-10-01T19:30:16.115Z,21.27
2022-10-01T19:33:01.782Z,21.24
2022-10-01T19:35:40.364Z,21.27
2022-10-01T19:38:16.098Z,21.31
2022-10-01T19:40:49.456Z,21.37
2022-10-01T19:43:41.218Z,21.45
2022-10-01T19:46:16.067Z,21.35
2022-10-01T19:48:51.358Z,21.45
2022-10-01T19:51:25.388Z,21.42
2022-10-01T19:54:01.277Z,21.48
2022-10-01T19:56:33.852Z,21.54
2022-10-01T19:59:11.166Z,21.51
2022-10-01T20:01:47.314Z,21.54
2022-10-01T20:04:30.567Z,21.43
2022-10-01T20:07:07.215Z,21.37
2022-10-01T20:09:45.082Z,21.42
2022-10-01T20:12:24.542Z,21.49
2022-10-01T20:15:09.992Z,21.48
2022-10-01T20:17:58.978Z,21.55
2022-10-01T20:20:41.209Z,21.48
2022-10-01T20:23:19.127Z,21.45
2022-10-01T20:26:01.715Z,21.46
2022-10-01T20:28:59.266Z,21.40
2022-10-01T20:31:34.890Z,21.38
2022-10-01T20:34:02.221Z,21.31
2022-10-01T20:36:43.662Z,21.24
2022-10-01T20:39:21.844Z,21.21
2022-10-01T20:41:54.251Z,21.20
2022-10-01T20:44:28.426Z,21.18
2022-10-01T20:47:04.906Z,21.04
2022-10-01T20:50:01.327Z,21.04
2022-10-01T20:52:41.529Z,20.82
2022-10-01T20:55:18.327Z,20.82
2022-10-01T20:57:54.665Z,20.71
2022-10-01T21:00:26.585Z,20.69
2022-10-01T21:02:58.839Z,20.59
2022-10-01T21:05:37.925Z,20.52
2022-10-01T21:08:18.120Z,20.48
2022-10-01T21:10:54.204Z,20.33
2022-10-01T21:13:30.286Z,20.32
2022-10-01T21:16:14.715Z,20.27
2022-10-01T21:18:58.750Z,20.20
2022-10-01T21:21:52.314Z,20.19
2022-10-01T21:24:51.201Z,20.15
2022-10-01T21:27:48.110Z,20.14
2022-10-01T21:30:22.770Z,20.04
2022-10-01T21:33:06.182Z,20.25
2022-10-01T21:35:49.909Z,20.04
2022-10-01T21:38:22.658Z,19.92
2022-10-01T21:41:15.480Z,19.88
2022-10-01T21:43:55.397Z,19.86
2022-10-01T21:46:40.317Z,19.90
2022-10-01T21:49:28.688Z,19.85
2022-10-01T21:52:33.321Z,19.93
2022-10-01T21:55:35.269Z,19.88
2022-10-01T21:58:21.615Z,19.75
2022-10-01T22:01:10.266Z,19.79
2022-10-01T22:03:51.026Z,19.78
2022-10-01T22:06:32.969Z,19.95
2022-10-01T22:09:17.223Z,20.10
2022-10-01T22:11:51.216Z,20.18
2022-10-01T22:14:20.487Z,20.20
2022-10-01T22:17:09.048Z,20.23
2022-10-01T22:19:39.777Z,20.17
2022-10-01T22:22:14.677Z,20.18
2022-10-01T22:24:50.941Z,20.07
2022-10-01T22:27:20.544Z,20.21
2022-10-01T22:30:18.599Z,20.39
2022-10-01T22:33:15.459Z,20.45
2022-10-01T22:36:07.571Z,20.48
2022-10-01T22:38:58.279Z,20.53
2022-10-01T22:41:33.982Z,20.57
2022-10-01T22:44:12.266Z,20.44
2022-10-01T22:46:51.834Z,20.46
2022-10-01T22:49:32.490Z,20.32
2022-10-01T22:52:02.715Z,20.29
2022-10-01T22:54:56.167Z,20.34
2022-10-01T22:57:50.050Z,20.53
2022-10-01T23:00:18.630Z,20.55
2022-10-01T23:03:13.908Z,20.55
2022-10-01T23:05:40.914Z,20.81
2022-10-01T23:08:27.078Z,20.61
2022-10-01T23:11:26.495Z,20.58
2022-10-01T23:14:02.457Z,20.49
2022-10-01T23:16:40.805Z,20.52
2022-10-01T23:19:14.101Z,20.59
2022-10-01T23:21:47.364Z,20.63
2022-10-01T23:24:29.819Z,20.64
2022-10-01T23:27:31.964Z,20.72
2022-10-01T23:30:14.355Z,20.76
2022-10-01T23:33:19.228Z,20.84
2022-10-01T23:35:53.057Z,21.00
2022-10-01T23:38:30.791Z,20.81
2022-10-01T23:41:37.637Z,20.85
2022-10-01T23:44:18.570Z,20.63
2022-10-01T23:46:51.427Z,20.63
2022-10-01T23:49:24.607Z,20.53
2022-10-01T23:52:10.011Z,20.49
2022-10-01T23:54:42.556Z,20.40
2022-10-01T23:57:32.239Z,20.43
